Time;durP1;ratioP1;P1;durP2;ratioP2;P2;SDS_P1;SDS_P2;PMS_P1;PMS_P2;Temp;Humidity;BMP_temperature;BMP_pressure;BME280_temperature;BME280_humidity;BME280_pressure;Samples;Min_cycle;Max_cycle;Signal;HPM_P1;HPM_P2
2022/10/25 00:01:46;;;;;;;;;;;;;;;13.16;69.21;95718.47;5054791;28;1278;-66
2022/10/25 00:04:12;;;;;;;;;;;;;;;13.17;69.18;95714.78;5055016;28;953;-66
2022/10/25 00:06:38;;;;;;;;;;;;;;;13.11;69.03;95710.91;5054726;28;1993;-66
2022/10/25 00:09:04;;;;;;;;;;;;;;;13.13;69.04;95714.28;5054936;28;1044;-66
2022/10/25 00:11:30;;;;;;;;;;;;;;;13.14;68.96;95717.78;5054699;28;1017;-66
2022/10/25 00:13:58;;;;;;;;;;;;;;;13.15;68.85;95723.00;5054612;28;1029;-66
2022/10/25 00:16:27;;;;;;;;;;;;;;;13.16;69.10;95723.84;5054522;28;1020;-66
2022/10/25 00:18:53;;;;;;;;;;;;;;;13.12;69.03;95733.22;5036873;28;1037;-66
2022/10/25 00:21:19;;;;;;;;;;;;;;;13.11;68.91;95726.16;5054632;28;1035;-66
2022/10/25 00:23:45;;;;;;;;;;;;;;;12.89;68.37;95725.75;5054470;28;989;-66
2022/10/25 00:26:11;;;;;;;;;;;;;;;12.84;69.40;95720.03;5054436;28;1002;-66
2022/10/25 00:28:38;;;;;;;;;;;;;;;12.88;69.03;95730.28;5054291;28;1977;-66
2022/10/25 00:31:06;;;;;;;;;;;;;;;12.89;69.13;95726.59;5036629;28;1096;-66
2022/10/25 00:33:32;;;;;;;;;;;;;;;12.85;68.76;95722.56;5054281;28;1665;-65
2022/10/25 00:36:04;;;;;;;;;;;;;;;12.84;69.11;95717.34;5054367;28;1050;-65
2022/10/25 00:38:30;;;;;;;;;;;;;;;12.73;68.57;95710.44;5054070;28;903;-66
2022/10/25 00:40:57;;;;;;;;;;;;;;;12.60;69.50;95716.25;5054239;28;1061;-66
2022/10/25 00:43:33;;;;;;;;;;;;;;;12.58;69.53;95715.56;5053321;28;1136;-65
2022/10/25 00:46:02;;;;;;;;;;;;;;;12.62;69.63;95716.91;5054066;28;1033;-66
2022/10/25 00:48:28;;;;;;;;;;;;;;;12.68;69.06;95718.94;5053920;28;1906;-65
2022/10/25 00:50:54;;;;;;;;;;;;;;;12.69;69.33;95712.59;5063561;28;1595;-65
2022/10/25 00:53:29;;;;;;;;;;;;;;;12.69;69.39;95709.91;5073802;28;1077;-65
2022/10/25 00:55:58;;;;;;;;;;;;;;;12.66;69.41;95712.91;5073694;28;1073;-65
2022/10/25 00:58:26;;;;;;;;;;;;;;;12.57;68.65;95713.03;5073957;28;1090;-65
2022/10/25 01:00:52;;;;;;;;;;;;;;;12.46;69.01;95700.72;5073906;28;993;-65
2022/10/25 01:03:20;;;;;;;;;;;;;;;12.43;69.08;95704.56;5073643;28;1077;-65
2022/10/25 01:05:47;;;;;;;;;;;;;;;12.50;69.76;95699.41;5073702;28;1112;-65
2022/10/25 01:08:14;;;;;;;;;;;;;;;12.51;69.40;95695.72;5055590;28;2044;-65
2022/10/25 01:10:40;;;;;;;;;;;;;;;12.47;69.05;95702.41;5073658;28;1061;-65
2022/10/25 01:13:06;;;;;;;;;;;;;;;12.42;69.61;95704.72;5056071;28;1009;-65
2022/10/25 01:15:39;;;;;;;;;;;;;;;12.33;68.94;95705.69;5073695;28;1033;-65
2022/10/25 01:18:13;;;;;;;;;;;;;;;12.23;69.88;95700.44;5073661;28;985;-65
2022/10/25 01:20:56;;;;;;;;;;;;;;;12.20;69.62;95703.41;5073600;28;1005;-65
2022/10/25 01:23:25;;;;;;;;;;;;;;;12.23;69.84;95701.25;5039958;28;3323;-64
2022/10/25 01:25:51;;;;;;;;;;;;;;;12.25;69.53;95701.94;5016115;28;995;-65
2022/10/25 01:28:20;;;;;;;;;;;;;;;12.24;69.55;95692.22;5033433;28;1914;-65
2022/10/25 01:30:46;;;;;;;;;;;;;;;12.20;69.00;95693.56;5033538;28;974;-65
2022/10/25 01:33:30;;;;;;;;;;;;;;;11.93;69.25;95694.53;5033319;28;1065;-63
2022/10/25 01:36:12;;;;;;;;;;;;;;;11.72;70.43;95692.16;5033645;28;970;-63
2022/10/25 01:38:50;;;;;;;;;;;;;;;11.82;70.47;95690.25;5033331;28;1049;-65
2022/10/25 01:41:26;;;;;;;;;;;;;;;11.87;70.19;95687.06;5015869;28;1060;-65
2022/10/25 01:43:52;;;;;;;;;;;;;;;11.94;70.07;95690.03;5033328;28;1041;-65
2022/10/25 01:46:22;;;;;;;;;;;;;;;12.00;69.91;95684.84;5033149;28;1986;-65
2022/10/25 01:48:54;;;;;;;;;;;;;;;12.01;70.33;95689.25;5033693;28;961;-65
2022/10/25 01:51:20;;;;;;;;;;;;;;;11.98;69.72;95684.19;5059778;28;1355;-65
2022/10/25 01:53:47;;;;;;;;;;;;;;;11.96;69.97;95682.66;5073220;28;1108;-65
2022/10/25 01:56:16;;;;;;;;;;;;;;;11.91;69.96;95680.44;5076663;28;1216;-65
2022/10/25 01:58:49;;;;;;;;;;;;;;;11.91;70.41;95681.31;5077187;28;950;-65
2022/10/25 02:01:26;;;;;;;;;;;;;;;11.98;70.26;95678.81;5059583;28;957;-65
2022/10/25 02:03:56;;;;;;;;;;;;;;;11.90;70.68;95678.78;5059407;28;1045;-65
2022/10/25 02:06:37;;;;;;;;;;;;;;;11.91;70.38;95686.66;5076926;28;1910;-65
2022/10/25 02:09:07;;;;;;;;;;;;;;;11.97;70.21;95685.19;5059255;28;1029;-65
2022/10/25 02:11:33;;;;;;;;;;;;;;;11.99;69.96;95683.19;5076965;28;1048;-65
2022/10/25 02:13:59;;;;;;;;;;;;;;;11.97;69.79;95684.34;5077085;28;1053;-65
2022/10/25 02:16:28;;;;;;;;;;;;;;;11.91;69.65;95683.13;5076977;28;970;-65
2022/10/25 02:18:57;;;;;;;;;;;;;;;11.73;69.38;95677.78;5059197;28;1017;-65
2022/10/25 02:21:24;;;;;;;;;;;;;;;11.67;70.55;95686.44;5076783;28;1037;-65
2022/10/25 02:23:52;;;;;;;;;;;;;;;11.70;70.08;95689.66;5076695;28;1026;-65
2022/10/25 02:26:19;;;;;;;;;;;;;;;11.61;70.23;95684.34;5076579;28;1108;-66
2022/10/25 02:28:46;;;;;;;;;;;;;;;11.57;70.40;95685.66;5076822;28;973;-65
2022/10/25 02:31:14;;;;;;;;;;;;;;;11.58;70.92;95679.31;5076613;28;969;-66
2022/10/25 02:33:42;;;;;;;;;;;;;;;11.67;70.55;95689.13;5076596;28;1146;-64
2022/10/25 02:36:13;;;;;;;;;;;;;;;11.73;70.38;95693.84;5076466;28;985;-65
2022/10/25 02:38:39;;;;;;;;;;;;;;;11.78;70.38;95686.19;5076673;28;1049;-65
2022/10/25 02:41:06;;;;;;;;;;;;;;;11.75;70.18;95691.00;5076600;28;1028;-65
2022/10/25 02:43:32;;;;;;;;;;;;;;;11.62;70.65;95691.41;5058792;28;1353;-65
2022/10/25 02:45:58;;;;;;;;;;;;;;;11.60;71.64;95701.44;5058730;28;1121;-66
2022/10/25 02:48:25;;;;;;;;;;;;;;;11.64;71.26;95695.59;5076127;28;1898;-66
2022/10/25 02:50:51;;;;;;;;;;;;;;;11.75;70.85;95707.91;5066765;28;1650;-66
2022/10/25 02:53:17;;;;;;;;;;;;;;;11.65;71.02;95707.19;5056333;28;927;-66
2022/10/25 02:55:43;;;;;;;;;;;;;;;11.60;70.27;95704.09;5055995;28;1411;-66
2022/10/25 02:58:09;;;;;;;;;;;;;;;11.36;70.91;95707.38;5056104;28;1025;-66
2022/10/25 03:00:35;;;;;;;;;;;;;;;11.30;71.45;95706.16;5038501;28;1120;-66
2022/10/25 03:03:01;;;;;;;;;;;;;;;11.23;71.07;95707.75;5055978;28;1049;-66
2022/10/25 03:05:27;;;;;;;;;;;;;;;11.27;71.37;95704.66;5055271;28;1069;-65
2022/10/25 03:07:53;;;;;;;;;;;;;;;11.36;70.77;95704.72;5038394;28;1914;-66
2022/10/25 03:10:19;;;;;;;;;;;;;;;11.41;70.84;95699.75;5056002;28;982;-66
2022/10/25 03:12:45;;;;;;;;;;;;;;;11.34;70.25;95699.50;5055818;28;1037;-66
2022/10/25 03:15:11;;;;;;;;;;;;;;;11.11;71.12;95704.47;5055818;28;969;-65
2022/10/25 03:17:37;;;;;;;;;;;;;;;11.09;71.18;95701.09;5055710;28;1096;-66
2022/10/25 03:20:03;;;;;;;;;;;;;;;11.04;71.88;95719.44;5055717;28;1065;-66
2022/10/25 03:22:30;;;;;;;;;;;;;;;11.12;71.75;95696.28;5055020;28;3136;-66
2022/10/25 03:24:56;;;;;;;;;;;;;;;11.22;71.56;95708.75;5055717;28;1160;-66
2022/10/25 03:27:22;;;;;;;;;;;;;;;11.24;71.24;95698.75;5055552;28;1906;-66
2022/10/25 03:29:49;;;;;;;;;;;;;;;11.28;71.30;95700.13;5055481;28;1092;-66
2022/10/25 03:32:15;;;;;;;;;;;;;;;11.38;71.03;95692.84;5055384;28;1101;-66
2022/10/25 03:34:41;;;;;;;;;;;;;;;11.39;70.73;95691.88;5055443;28;1222;-66
2022/10/25 03:37:07;;;;;;;;;;;;;;;11.13;69.80;95695.31;5055282;28;1113;-65
2022/10/25 03:39:33;;;;;;;;;;;;;;;10.99;70.86;95700.31;5055553;28;981;-65
2022/10/25 03:41:59;;;;;;;;;;;;;;;10.99;70.94;95700.31;5055464;28;1051;-65
2022/10/25 03:44:25;;;;;;;;;;;;;;;10.80;71.92;95702.13;5055325;28;1072;-66
2022/10/25 03:46:51;;;;;;;;;;;;;;;10.83;72.04;95709.84;5055136;28;1917;-66
2022/10/25 03:49:17;;;;;;;;;;;;;;;10.86;71.51;95708.69;5055027;28;1105;-66
2022/10/25 03:51:43;;;;;;;;;;;;;;;10.94;71.54;95708.78;5071497;28;1643;-65
2022/10/25 03:54:09;;;;;;;;;;;;;;;10.96;71.14;95700.63;5074953;28;1239;-66
2022/10/25 03:56:35;;;;;;;;;;;;;;;10.92;71.74;95708.09;5075200;28;1028;-66
2022/10/25 03:59:01;;;;;;;;;;;;;;;11.01;71.17;95701.84;5074969;28;1029;-66
2022/10/25 04:01:27;;;;;;;;;;;;;;;10.99;70.39;95703.84;5057201;28;1033;-66
2022/10/25 04:03:53;;;;;;;;;;;;;;;10.87;70.55;95702.34;5074893;28;988;-65
2022/10/25 04:06:19;;;;;;;;;;;;;;;10.85;70.62;95701.66;5074969;28;985;-66
2022/10/25 04:08:45;;;;;;;;;;;;;;;10.88;70.83;95709.41;5074684;28;1905;-66
2022/10/25 04:11:11;;;;;;;;;;;;;;;10.86;70.23;95703.34;5074670;28;1049;-65
2022/10/25 04:13:37;;;;;;;;;;;;;;;10.68;71.14;95698.81;5074673;28;1120;-66
2022/10/25 04:16:07;;;;;;;;;;;;;;;10.74;71.38;95692.84;5056930;28;1094;-66
2022/10/25 04:18:34;;;;;;;;;;;;;;;10.83;71.41;95695.63;5073571;28;1104;-66
2022/10/25 04:21:00;;;;;;;;;;;;;;;10.84;71.39;95698.16;5056732;28;1096;-65
2022/10/25 04:23:26;;;;;;;;;;;;;;;10.93;71.42;95697.25;5074356;28;1121;-66
2022/10/25 04:25:55;;;;;;;;;;;;;;;10.97;71.21;95696.97;5074320;28;1116;-66
2022/10/25 04:28:24;;;;;;;;;;;;;;;10.90;70.79;95697.53;5074160;28;1902;-66
2022/10/25 04:30:50;;;;;;;;;;;;;;;10.67;71.61;95705.13;5074370;28;973;-66
2022/10/25 04:33:16;;;;;;;;;;;;;;;10.65;71.75;95696.41;5074105;28;1080;-67
2022/10/25 04:35:42;;;;;;;;;;;;;;;10.58;71.82;95702.50;5074438;28;1056;-63
2022/10/25 04:38:09;;;;;;;;;;;;;;;10.60;71.42;95701.34;5074259;28;1128;-64
2022/10/25 04:40:35;;;;;;;;;;;;;;;10.55;71.45;95698.31;5074205;28;983;-64
2022/10/25 04:43:01;;;;;;;;;;;;;;;10.42;72.06;95692.44;5056514;28;1061;-64
2022/10/25 04:45:28;;;;;;;;;;;;;;;10.45;72.15;95695.69;5073904;28;985;-63
2022/10/25 04:47:54;;;;;;;;;;;;;;;10.53;72.02;95703.78;5073842;28;1914;-64
2022/10/25 04:50:20;;;;;;;;;;;;;;;10.65;71.85;95693.75;5068903;28;1577;-64
2022/10/25 04:52:46;;;;;;;;;;;;;;;10.60;71.40;95692.50;5053947;28;1133;-65
2022/10/25 04:55:12;;;;;;;;;;;;;;;10.45;71.56;95710.84;5053758;28;1091;-64
2022/10/25 04:57:38;;;;;;;;;;;;;;;10.42;71.89;95703.97;5053961;28;1040;-64
2022/10/25 05:00:05;;;;;;;;;;;;;;;10.45;72.04;95708.19;5036060;28;1113;-64
2022/10/25 05:02:31;;;;;;;;;;;;;;;10.53;71.75;95708.31;5053575;28;1040;-65
2022/10/25 05:04:57;;;;;;;;;;;;;;;10.53;71.59;95705.63;5053600;28;1049;-66
2022/10/25 05:07:23;;;;;;;;;;;;;;;10.57;71.41;95704.34;5053612;28;1983;-64
2022/10/25 05:09:49;;;;;;;;;;;;;;;10.49;70.86;95709.56;5053118;28;1061;-65
2022/10/25 05:12:15;;;;;;;;;;;;;;;10.40;71.32;95715.81;5053511;28;1116;-59
2022/10/25 05:14:41;;;;;;;;;;;;;;;10.19;72.19;95707.94;5053294;28;1120;-58
2022/10/25 05:17:07;;;;;;;;;;;;;;;10.26;72.17;95709.91;5053285;28;1156;-59
2022/10/25 05:19:33;;;;;;;;;;;;;;;10.23;72.61;95710.19;5053393;28;1021;-58
2022/10/25 05:21:59;;;;;;;;;;;;;;;10.18;72.94;95719.63;5053548;28;1069;-58
2022/10/25 05:24:26;;;;;;;;;;;;;;;10.16;73.31;95709.91;5053221;28;1077;-57
2022/10/25 05:26:52;;;;;;;;;;;;;;;10.34;73.08;95714.56;5053233;28;1989;-57
2022/10/25 05:29:18;;;;;;;;;;;;;;;10.46;72.67;95720.56;5053035;28;961;-57
2022/10/25 05:31:44;;;;;;;;;;;;;;;10.43;72.93;95721.69;5053301;28;971;-58
2022/10/25 05:34:10;;;;;;;;;;;;;;;10.50;72.42;95720.13;5053156;28;968;-58
2022/10/25 05:36:36;;;;;;;;;;;;;;;10.65;72.51;95725.84;5053457;28;985;-58
2022/10/25 05:39:03;;;;;;;;;;;;;;;10.71;72.33;95721.72;5053290;28;1036;-58
2022/10/25 05:41:29;;;;;;;;;;;;;;;10.69;73.00;95723.72;5053142;28;1036;-57
2022/10/25 05:43:56;;;;;;;;;;;;;;;10.91;71.92;95733.19;5053228;28;1042;-57
2022/10/25 05:46:22;;;;;;;;;;;;;;;10.77;72.49;95731.00;5053067;28;1000;-57
2022/10/25 05:48:49;;;;;;;;;;;;;;;10.81;73.38;95735.03;5035310;28;2001;-58
2022/10/25 05:51:17;;;;;;;;;;;;;;;11.01;73.33;95731.28;5052994;28;1654;-58
2022/10/25 05:53:50;;;;;;;;;;;;;;;11.05;72.94;95746.03;5053010;28;1049;-58
2022/10/25 05:56:17;;;;;;;;;;;;;;;11.33;72.78;95746.03;5052821;28;1066;-58
2022/10/25 05:58:43;;;;;;;;;;;;;;;11.70;71.19;95737.88;5052965;28;939;-58
2022/10/25 06:01:10;;;;;;;;;;;;;;;11.85;71.11;95748.84;5052770;28;1017;-58
2022/10/25 06:03:37;;;;;;;;;;;;;;;12.30;69.39;95741.69;5052857;28;1092;-58
2022/10/25 06:06:04;;;;;;;;;;;;;;;12.49;69.43;95744.16;5052874;28;1116;-58
2022/10/25 06:08:30;;;;;;;;;;;;;;;12.43;69.08;95743.97;5052789;28;1997;-58
2022/10/25 06:11:03;;;;;;;;;;;;;;;12.96;68.14;95755.50;5052555;28;1081;-58
2022/10/25 06:13:29;;;;;;;;;;;;;;;13.37;67.52;95759.16;5052350;28;1052;-58
2022/10/25 06:15:55;;;;;;;;;;;;;;;13.74;66.33;95757.09;5052706;28;1029;-58
2022/10/25 06:18:21;;;;;;;;;;;;;;;14.00;65.29;95757.78;5052893;28;973;-58
2022/10/25 06:20:48;;;;;;;;;;;;;;;14.22;64.85;95758.09;5052850;28;1013;-58
2022/10/25 06:23:14;;;;;;;;;;;;;;;14.57;64.20;95764.16;5052712;28;1017;-58
2022/10/25 06:25:40;;;;;;;;;;;;;;;14.79;63.12;95762.59;5052733;28;1025;-58
2022/10/25 06:28:08;;;;;;;;;;;;;;;14.96;62.41;95772.28;5052501;28;1910;-58
2022/10/25 06:30:34;;;;;;;;;;;;;;;15.28;61.49;95775.06;5052536;28;2200;-58
2022/10/25 06:33:00;;;;;;;;;;;;;;;15.38;60.79;95787.28;5052832;28;1037;-58
2022/10/25 06:35:28;;;;;;;;;;;;;;;15.62;59.82;95790.88;5052425;28;1125;-58
2022/10/25 06:38:00;;;;;;;;;;;;;;;16.56;57.16;95782.63;5052645;28;1041;-58
2022/10/25 06:40:26;;;;;;;;;;;;;;;17.11;55.72;95783.28;5053127;28;1111;-58
2022/10/25 06:42:54;;;;;;;;;;;;;;;18.97;50.44;95784.47;5056159;28;1025;-58
2022/10/25 06:45:20;;;;;;;;;;;;;;;18.57;51.48;95775.16;5056323;28;962;-58
2022/10/25 06:47:46;;;;;;;;;;;;;;;16.84;56.54;95779.38;5056229;28;1993;-58
2022/10/25 06:50:12;;;;;;;;;;;;;;;16.20;58.74;95783.28;5059813;28;1308;-58
2022/10/25 06:52:38;;;;;;;;;;;;;;;15.84;60.05;95780.34;5076187;28;1032;-58
2022/10/25 06:55:04;;;;;;;;;;;;;;;15.65;59.98;95768.13;5075850;28;1085;-58
2022/10/25 06:57:30;;;;;;;;;;;;;;;15.57;60.82;95774.41;5075775;28;1117;-58
2022/10/25 06:59:56;;;;;;;;;;;;;;;15.58;61.82;95771.53;5076157;28;984;-58
2022/10/25 07:02:22;;;;;;;;;;;;;;;15.72;61.21;95761.84;5075741;28;1053;-58
2022/10/25 07:04:48;;;;;;;;;;;;;;;15.81;60.93;95760.81;5075990;28;974;-58
2022/10/25 07:07:14;;;;;;;;;;;;;;;15.86;60.89;95757.59;5075776;28;1902;-58
2022/10/25 07:09:40;;;;;;;;;;;;;;;16.02;60.60;95751.22;5075809;28;977;-58
2022/10/25 07:12:06;;;;;;;;;;;;;;;16.44;60.58;95744.47;5075692;28;989;-58
2022/10/25 07:14:32;;;;;;;;;;;;;;;16.87;59.83;95746.59;5075869;28;981;-58
2022/10/25 07:16:58;;;;;;;;;;;;;;;16.88;59.84;95743.69;5075616;28;1061;-59
2022/10/25 07:19:24;;;;;;;;;;;;;;;16.89;59.45;95742.69;5075606;28;1064;-59
2022/10/25 07:21:50;;;;;;;;;;;;;;;16.97;59.31;95750.69;5075664;28;969;-59
2022/10/25 07:24:16;;;;;;;;;;;;;;;17.49;58.43;95750.72;5075396;28;1337;-59
2022/10/25 07:26:42;;;;;;;;;;;;;;;19.99;51.81;95763.88;5075248;28;2027;-58
2022/10/25 07:29:08;;;;;;;;;;;;;;;21.84;46.35;95749.53;5075589;28;1037;-59
2022/10/25 07:31:36;;;;;;;;;;;;;;;22.03;45.21;95745.03;5075515;28;1024;-58
2022/10/25 07:34:02;;;;;;;;;;;;;;;22.23;44.96;95744.88;5075252;28;1141;-59
2022/10/25 07:36:29;;;;;;;;;;;;;;;21.02;48.01;95732.84;5075115;28;914;-59
2022/10/25 07:38:55;;;;;;;;;;;;;;;24.13;41.79;95746.16;5075202;28;1100;-59
2022/10/25 07:41:22;;;;;;;;;;;;;;;27.69;34.95;95758.63;5075048;28;1040;-59
2022/10/25 07:43:48;;;;;;;;;;;;;;;26.71;36.25;95758.22;5075084;28;1064;-59
2022/10/25 07:46:15;;;;;;;;;;;;;;;23.94;41.08;95745.38;5075201;28;981;-59
2022/10/25 07:48:41;;;;;;;;;;;;;;;22.34;45.19;95741.47;5075110;28;1906;-59
2022/10/25 07:51:09;;;;;;;;;;;;;;;21.05;47.96;95732.41;5063383;28;1272;-59
2022/10/25 07:53:35;;;;;;;;;;;;;;;20.31;49.38;95725.31;5054996;28;1057;-59
2022/10/25 07:56:01;;;;;;;;;;;;;;;20.13;49.96;95725.91;5055162;28;1539;-59
2022/10/25 07:58:27;;;;;;;;;;;;;;;20.13;50.44;95715.91;5054957;28;971;-59
2022/10/25 08:01:00;;;;;;;;;;;;;;;22.00;46.37;95696.44;5054916;28;1140;-59
2022/10/25 08:03:26;;;;;;;;;;;;;;;23.07;42.89;95728.31;5054599;28;1050;-59
2022/10/25 08:05:52;;;;;;;;;;;;;;;21.72;45.76;95718.59;5037087;28;1066;-59
2022/10/25 08:08:22;;;;;;;;;;;;;;;20.67;48.72;95712.16;5054535;28;1979;-59
2022/10/25 08:10:48;;;;;;;;;;;;;;;20.15;50.97;95699.44;5054513;28;1038;-59
2022/10/25 08:13:14;;;;;;;;;;;;;;;20.05;51.04;95706.09;5054701;28;942;-59
2022/10/25 08:15:40;;;;;;;;;;;;;;;20.81;49.30;95688.56;5054644;28;1052;-59
2022/10/25 08:18:06;;;;;;;;;;;;;;;20.58;50.46;95690.84;5054581;28;950;-59
2022/10/25 08:20:32;;;;;;;;;;;;;;;20.40;51.06;95697.75;5054365;28;1046;-59
2022/10/25 08:22:58;;;;;;;;;;;;;;;20.35;51.25;95694.00;5054394;28;933;-59
2022/10/25 08:25:25;;;;;;;;;;;;;;;20.41;51.53;95694.00;5054147;28;1042;-59
2022/10/25 08:27:51;;;;;;;;;;;;;;;20.50;51.18;95691.06;5054136;28;1910;-59
2022/10/25 08:30:17;;;;;;;;;;;;;;;20.91;49.77;95681.84;5054090;28;1053;-59
2022/10/25 08:32:43;;;;;;;;;;;;;;;22.29;46.80;95688.72;5036623;28;983;-59
2022/10/25 08:35:09;;;;;;;;;;;;;;;24.17;42.62;95683.72;5054090;28;1061;-59
2022/10/25 08:37:35;;;;;;;;;;;;;;;23.64;43.04;95689.88;5054121;28;1017;-59
2022/10/25 08:40:01;;;;;;;;;;;;;;;22.92;44.47;95674.13;5053945;28;1034;-59
2022/10/25 08:42:33;;;;;;;;;;;;;;;22.36;46.24;95678.63;5054162;28;1029;-59
2022/10/25 08:44:59;;;;;;;;;;;;;;;22.13;47.03;95673.72;5054081;28;1021;-59
2022/10/25 08:47:32;;;;;;;;;;;;;;;22.06;46.88;95675.66;5036068;28;2009;-59
2022/10/25 08:50:21;;;;;;;;;;;;;;;22.12;46.94;95672.06;5053762;28;1268;-59
2022/10/25 08:52:52;;;;;;;;;;;;;;;22.75;45.42;95674.69;5040835;28;1175;-59
2022/10/25 08:59:03;;;;;;;;;;;;;;;23.67;42.80;95673.88;5017038;28;1285;-59
2022/10/25 09:01:46;;;;;;;;;;;;;;;23.43;44.13;95669.34;5014141;28;993;-59
2022/10/25 09:04:14;;;;;;;;;;;;;;;23.41;43.77;95666.88;5013371;28;1152;-59
2022/10/25 09:06:40;;;;;;;;;;;;;;;23.46;43.82;95671.63;5013731;28;1898;-59
2022/10/25 09:09:11;;;;;;;;;;;;;;;23.38;43.56;95670.88;5013859;28;1106;-59
2022/10/25 09:11:37;;;;;;;;;;;;;;;23.41;43.64;95658.69;5014037;28;1072;-59
2022/10/25 09:14:03;;;;;;;;;;;;;;;23.63;43.70;95656.28;5013785;28;1037;-59
2022/10/25 09:16:48;;;;;;;;;;;;;;;23.80;42.94;95667.44;5013745;28;1013;-59
2022/10/25 09:19:17;;;;;;;;;;;;;;;23.93;42.73;95664.50;5013652;28;1073;-59
2022/10/25 09:21:52;;;;;;;;;;;;;;;24.23;42.26;95666.38;5013584;28;1046;-59
2022/10/25 09:24:18;;;;;;;;;;;;;;;24.62;41.66;95663.25;4996340;28;942;-59
2022/10/25 09:27:07;;;;;;;;;;;;;;;24.76;41.30;95664.69;5013676;28;1887;-59
2022/10/25 09:29:37;;;;;;;;;;;;;;;24.79;41.20;95660.63;5008054;28;1262;-58
2022/10/25 09:32:10;;;;;;;;;;;;;;;24.88;40.66;95656.47;5013494;28;1061;-59
2022/10/25 09:34:37;;;;;;;;;;;;;;;24.94;40.96;95655.50;5013712;28;1027;-58
2022/10/25 09:37:29;;;;;;;;;;;;;;;25.03;40.24;95655.97;5013479;28;1097;-58
2022/10/25 09:39:58;;;;;;;;;;;;;;;25.19;40.93;95646.19;4997914;28;1412;-58
2022/10/25 09:42:26;;;;;;;;;;;;;;;26.21;37.81;95640.00;5013406;28;1057;-58
2022/10/25 09:44:58;;;;;;;;;;;;;;;28.35;33.91;95656.88;5013297;28;1028;-58
2022/10/25 09:47:34;;;;;;;;;;;;;;;29.67;33.26;95655.28;5013422;28;1914;-58
2022/10/25 09:50:12;;;;;;;;;;;;;;;30.45;31.05;95659.09;5013240;28;1266;-59
2022/10/25 09:52:38;;;;;;;;;;;;;;;30.64;30.69;95651.94;5013363;28;1024;-58
2022/10/25 09:55:14;;;;;;;;;;;;;;;30.51;31.16;95660.75;5013356;28;1033;-58
2022/10/25 09:57:41;;;;;;;;;;;;;;;30.08;31.47;95649.91;5016358;28;1233;-59
2022/10/25 10:00:11;;;;;;;;;;;;;;;29.49;32.76;95644.75;5033172;28;1038;-58
2022/10/25 10:02:38;;;;;;;;;;;;;;;28.85;33.60;95641.06;5033250;28;974;-58
2022/10/25 10:05:04;;;;;;;;;;;;;;;28.06;35.34;95634.34;5033054;28;1117;-58
2022/10/25 10:07:34;;;;;;;;;;;;;;;27.00;36.56;95608.88;5032907;28;1999;-58
2022/10/25 10:10:02;;;;;;;;;;;;;;;25.76;38.18;95594.22;5033315;28;997;-58
2022/10/25 10:12:31;;;;;;;;;;;;;;;24.71;39.09;95586.09;5033154;28;1039;-58
2022/10/25 10:14:59;;;;;;;;;;;;;;;23.88;41.12;95570.69;5048460;28;1028;-58
2022/10/25 10:17:28;;;;;;;;;;;;;;;23.33;42.83;95564.31;5036952;28;1094;-58
2022/10/25 10:20:24;;;;;;;;;;;;;;;22.98;43.60;95564.16;5036940;28;1021;-58
2022/10/25 10:22:52;;;;;;;;;;;;;;;22.73;44.57;95567.78;5024615;28;1328;-58
2022/10/25 10:25:21;;;;;;;;;;;;;;;22.54;45.11;95568.84;5036585;28;1062;-58
2022/10/25 10:27:48;;;;;;;;;;;;;;;22.35;45.51;95560.66;5036567;28;1993;-58
2022/10/25 10:30:19;;;;;;;;;;;;;;;22.22;46.00;95553.41;5051907;28;989;-58
2022/10/25 10:32:46;;;;;;;;;;;;;;;22.09;46.14;95547.25;5036514;28;986;-58
2022/10/25 10:35:44;;;;;;;;;;;;;;;22.08;46.00;95553.75;5036410;28;1018;-58
2022/10/25 10:38:13;;;;;;;;;;;;;;;22.02;46.46;95550.03;5003313;28;1382;-58
2022/10/25 10:40:40;;;;;;;;;;;;;;;21.91;46.83;95543.44;5036443;28;1057;-57
2022/10/25 10:43:21;;;;;;;;;;;;;;;21.91;46.55;95540.72;5036433;28;962;-58
2022/10/25 10:45:48;;;;;;;;;;;;;;;21.87;46.11;95538.66;5036379;28;1074;-57
2022/10/25 10:48:19;;;;;;;;;;;;;;;21.89;46.65;95533.81;5036448;28;1903;-58
2022/10/25 10:50:49;;;;;;;;;;;;;;;21.91;46.71;95535.28;5036117;28;1257;-58
2022/10/25 10:53:24;;;;;;;;;;;;;;;21.92;47.22;95536.94;5036263;28;965;-57
2022/10/25 10:55:51;;;;;;;;;;;;;;;21.94;45.78;95529.38;5036180;28;1041;-58
2022/10/25 10:58:25;;;;;;;;;;;;;;;21.90;46.16;95530.88;5036046;28;1347;-58
2022/10/25 11:00:54;;;;;;;;;;;;;;;21.88;46.55;95513.13;5036144;28;1049;-57
2022/10/25 11:03:35;;;;;;;;;;;;;;;21.93;46.30;95519.56;5036013;28;1040;-58
2022/10/25 11:06:03;;;;;;;;;;;;;;;21.98;46.50;95518.88;5035991;28;1049;-58
2022/10/25 11:08:29;;;;;;;;;;;;;;;21.99;46.22;95510.47;5035729;28;1902;-58
2022/10/25 11:11:11;;;;;;;;;;;;;;;21.97;46.23;95511.78;5036169;28;989;-58
2022/10/25 11:13:37;;;;;;;;;;;;;;;21.97;45.62;95501.72;5035955;28;1089;-58
2022/10/25 11:16:16;;;;;;;;;;;;;;;22.00;45.53;95503.97;5035883;28;1034;-58
2022/10/25 11:18:52;;;;;;;;;;;;;;;22.09;45.89;95501.81;5018229;28;1026;-58
2022/10/25 11:21:24;;;;;;;;;;;;;;;22.19;46.27;95498.56;5035627;28;1046;-58
2022/10/25 11:24:04;;;;;;;;;;;;;;;22.18;45.80;95496.91;5035671;28;903;-57
2022/10/25 11:26:47;;;;;;;;;;;;;;;22.22;46.10;95485.31;5035120;28;1057;-57
2022/10/25 11:43:29;;;;;;;;;;;;;;;22.45;46.54;95474.84;5131699;27;1255;-57
2022/10/25 11:46:02;;;;;;;;;;;;;;;22.48;45.57;95471.66;5131429;27;995;-57
2022/10/25 11:48:37;;;;;;;;;;;;;;;22.50;46.23;95470.38;5131454;27;1217;-58
2022/10/25 11:51:10;;;;;;;;;;;;;;;22.55;45.97;95469.69;5130175;28;1902;-58
2022/10/25 11:53:42;;;;;;;;;;;;;;;22.57;46.27;95462.94;5131417;27;968;-57
2022/10/25 11:56:14;;;;;;;;;;;;;;;22.52;45.36;95456.50;5131652;27;1015;-57
2022/10/25 11:59:06;;;;;;;;;;;;;;;22.57;45.70;95452.03;5131361;27;1044;-57
2022/10/25 12:01:43;;;;;;;;;;;;;;;22.58;45.90;95450.16;5114062;28;1088;-58
2022/10/25 12:04:22;;;;;;;;;;;;;;;22.64;46.26;95448.41;5131023;27;987;-57
2022/10/25 12:06:54;;;;;;;;;;;;;;;22.64;45.46;95445.69;5130841;27;1255;-57
2022/10/25 12:09:30;;;;;;;;;;;;;;;22.66;45.45;95433.50;5131115;27;956;-57
2022/10/25 12:11:59;;;;;;;;;;;;;;;22.69;45.76;95433.03;5131010;27;1902;-57
2022/10/25 12:14:31;;;;;;;;;;;;;;;22.70;45.93;95423.78;5131283;27;1035;-58
2022/10/25 12:16:59;;;;;;;;;;;;;;;22.72;45.29;95421.66;5130785;27;928;-58
2022/10/25 12:19:31;;;;;;;;;;;;;;;22.72;45.63;95416.22;5129456;28;1130;-57
2022/10/25 12:22:02;;;;;;;;;;;;;;;22.71;46.04;95413.72;5130865;27;1014;-58
2022/10/25 12:24:33;;;;;;;;;;;;;;;22.70;46.00;95410.16;5130721;27;1039;-57
2022/10/25 12:26:59;;;;;;;;;;;;;;;22.69;46.02;95411.25;5130773;27;960;-57
2022/10/25 12:29:32;;;;;;;;;;;;;;;22.69;45.55;95408.50;5130469;27;1095;-58
2022/10/25 12:32:00;;;;;;;;;;;;;;;22.72;45.21;95410.75;5129296;28;1898;-58
2022/10/25 12:34:44;;;;;;;;;;;;;;;22.75;45.32;95407.59;5130482;27;1079;-58
2022/10/25 12:37:13;;;;;;;;;;;;;;;22.77;43.96;95407.34;5130438;27;1096;-58
2022/10/25 12:39:41;;;;;;;;;;;;;;;22.80;43.72;95406.88;5123667;28;1275;-57
2022/10/25 12:42:14;;;;;;;;;;;;;;;22.77;43.63;95408.19;5106796;28;1091;-57
2022/10/25 12:44:40;;;;;;;;;;;;;;;22.76;42.21;95405.69;5095985;28;921;-57
2022/10/25 12:47:06;;;;;;;;;;;;;;;22.79;43.23;95397.88;5095320;28;1054;-57
2022/10/25 12:49:32;;;;;;;;;;;;;;;22.80;43.15;95401.44;5096376;28;1058;-57
2022/10/25 12:52:11;;;;;;;;;;;;;;;22.82;43.47;95393.84;5096146;28;1902;-57
2022/10/25 12:54:45;;;;;;;;;;;;;;;22.80;42.96;95391.38;5096612;28;1057;-57
2022/10/25 12:57:14;;;;;;;;;;;;;;;22.85;42.69;95398.84;5096044;28;1045;-57
2022/10/25 12:59:49;;;;;;;;;;;;;;;22.85;42.68;95389.84;5096216;28;1044;-58
2022/10/25 13:02:27;;;;;;;;;;;;;;;22.85;42.43;95392.56;5096054;28;1036;-57
2022/10/25 13:04:56;;;;;;;;;;;;;;;22.84;42.91;95391.75;5096020;28;1008;-57
2022/10/25 13:07:23;;;;;;;;;;;;;;;22.84;42.13;95397.19;5095793;28;1018;-57
2022/10/25 13:09:49;;;;;;;;;;;;;;;22.81;41.28;95395.75;5096100;28;973;-58
2022/10/25 13:12:29;;;;;;;;;;;;;;;22.79;41.89;95392.41;5094435;28;1902;-57
2022/10/25 13:14:57;;;;;;;;;;;;;;;22.80;41.56;95390.53;5096175;28;1037;-57
2022/10/25 13:17:23;;;;;;;;;;;;;;;22.83;41.26;95384.63;5095751;28;984;-58
2022/10/25 13:19:54;;;;;;;;;;;;;;;22.88;41.11;95392.94;5095631;28;1059;-58
2022/10/25 13:22:34;;;;;;;;;;;;;;;22.89;40.84;95389.13;5094373;28;1052;-57
2022/10/25 13:25:01;;;;;;;;;;;;;;;22.86;40.41;95384.16;5095810;28;947;-57
2022/10/25 13:27:28;;;;;;;;;;;;;;;22.84;40.70;95388.16;5095569;28;1028;-58